createdAt,value
2018-12-29T00:00:12.863Z,0.60
2018-12-29T00:02:40.356Z,0.50
2018-12-29T00:05:07.934Z,0.40
2018-12-29T00:07:35.443Z,0.50
2018-12-29T00:10:03.116Z,0.30
2018-12-29T00:12:30.662Z,0.40
2018-12-29T00:14:58.228Z,0.40
2018-12-29T00:17:25.795Z,0.50
2018-12-29T00:19:53.583Z,0.50
2018-12-29T00:22:21.021Z,0.70
2018-12-29T00:24:49.078Z,0.50
2018-12-29T00:27:16.622Z,0.60
2018-12-29T00:29:44.429Z,0.70
2018-12-29T00:32:11.977Z,0.60
2018-12-29T00:34:39.315Z,0.50
2018-12-29T00:37:06.818Z,0.60
2018-12-29T00:39:34.403Z,0.70
2018-12-29T00:42:02.009Z,0.70
2018-12-29T00:44:30.691Z,0.60
2018-12-29T00:46:58.273Z,0.70
2018-12-29T00:49:25.862Z,0.70
2018-12-29T00:51:53.431Z,0.60
2018-12-29T00:54:21.119Z,0.60
2018-12-29T00:56:48.771Z,0.60
2018-12-29T00:59:16.251Z,0.60
2018-12-29T01:01:43.891Z,0.40
2018-12-29T01:04:11.384Z,0.60
2018-12-29T01:06:38.880Z,0.50
2018-12-29T01:09:06.484Z,0.50
2018-12-29T01:11:34.446Z,0.60
2018-12-29T01:14:02.058Z,0.60
2018-12-29T01:16:29.827Z,0.60
2018-12-29T01:18:57.260Z,0.50
2018-12-29T01:21:27.591Z,0.50
2018-12-29T01:24:02.173Z,0.60
2018-12-29T01:26:29.804Z,0.60
2018-12-29T01:28:57.363Z,0.60
2018-12-29T01:31:24.786Z,0.70
2018-12-29T01:33:52.399Z,0.60
2018-12-29T01:36:20.015Z,0.70
2018-12-29T01:38:47.596Z,0.50
2018-12-29T01:41:15.150Z,0.50
2018-12-29T01:43:42.586Z,0.50
2018-12-29T01:46:09.904Z,0.50
2018-12-29T01:48:37.431Z,0.60
2018-12-29T01:51:04.888Z,0.60
2018-12-29T01:53:32.272Z,0.60
2018-12-29T01:55:59.527Z,0.60
2018-12-29T01:58:26.843Z,0.60
2018-12-29T02:00:54.107Z,0.60
2018-12-29T02:03:21.331Z,0.50
2018-12-29T02:05:48.582Z,0.50
2018-12-29T02:08:15.826Z,0.50
2018-12-29T02:10:43.064Z,0.60
2018-12-29T02:13:10.315Z,0.60
2018-12-29T02:15:37.572Z,0.50
2018-12-29T02:18:04.884Z,0.70
2018-12-29T02:20:32.132Z,0.50
2018-12-29T02:22:59.407Z,0.60
2018-12-29T02:25:26.654Z,0.70
2018-12-29T02:27:53.903Z,0.70
2018-12-29T02:30:21.157Z,0.70
2018-12-29T02:32:48.407Z,0.60
2018-12-29T02:35:15.649Z,0.60
2018-12-29T02:37:42.898Z,0.60
2018-12-29T02:40:10.168Z,0.60
2018-12-29T02:42:37.968Z,0.60
2018-12-29T02:45:05.214Z,0.60
2018-12-29T02:47:32.463Z,0.80
2018-12-29T02:49:59.742Z,0.70
2018-12-29T02:52:27.001Z,0.80
2018-12-29T02:54:54.263Z,0.70
2018-12-29T02:57:24.743Z,0.70
2018-12-29T02:59:51.990Z,0.70
2018-12-29T03:02:19.236Z,0.70
2018-12-29T03:04:46.484Z,0.70
2018-12-29T03:07:13.782Z,0.80
2018-12-29T03:09:41.040Z,0.80
2018-12-29T03:12:08.315Z,0.80
2018-12-29T03:14:35.630Z,0.90
2018-12-29T03:17:03.072Z,0.90
2018-12-29T03:19:30.355Z,0.80
2018-12-29T03:21:57.604Z,0.80
2018-12-29T03:24:24.830Z,0.90
2018-12-29T03:26:52.121Z,0.70
2018-12-29T03:29:19.355Z,0.70
2018-12-29T03:31:46.644Z,0.70
2018-12-29T03:34:13.899Z,0.70
2018-12-29T03:36:41.121Z,0.60
2018-12-29T03:39:08.391Z,0.60
2018-12-29T03:41:36.447Z,0.60
2018-12-29T03:44:03.673Z,0.60
2018-12-29T03:46:30.984Z,0.60
2018-12-29T03:48:58.225Z,0.60
2018-12-29T03:51:25.458Z,0.60
2018-12-29T03:53:52.723Z,0.60
2018-12-29T03:56:20.145Z,0.70
2018-12-29T03:58:47.382Z,0.60
2018-12-29T04:01:14.720Z,0.50
2018-12-29T04:03:41.971Z,0.60
2018-12-29T04:06:09.235Z,0.60
2018-12-29T04:08:36.475Z,0.80
2018-12-29T04:11:03.712Z,0.60
2018-12-29T04:13:31.131Z,0.80
2018-12-29T04:15:58.523Z,0.70
2018-12-29T04:18:25.801Z,0.80
2018-12-29T04:20:53.091Z,0.60
2018-12-29T04:23:20.434Z,0.90
2018-12-29T04:25:47.790Z,0.80
2018-12-29T04:28:15.021Z,0.80
2018-12-29T04:30:42.259Z,0.70
2018-12-29T04:33:09.605Z,0.80
2018-12-29T04:35:36.839Z,0.80
2018-12-29T04:38:04.085Z,0.90
2018-12-29T04:40:31.323Z,0.70
2018-12-29T04:42:58.555Z,0.70
2018-12-29T04:45:25.831Z,0.90
2018-12-29T04:47:53.067Z,0.80
2018-12-29T04:50:20.329Z,0.80
2018-12-29T04:52:47.580Z,0.80
2018-12-29T04:55:14.807Z,1.00
2018-12-29T04:57:42.056Z,0.90
2018-12-29T05:00:09.303Z,0.80
2018-12-29T05:02:36.533Z,0.90
2018-12-29T05:05:05.212Z,0.90
2018-12-29T05:07:32.455Z,0.90
2018-12-29T05:09:59.695Z,0.80
2018-12-29T05:12:26.966Z,0.70
2018-12-29T05:14:54.231Z,0.80
2018-12-29T05:17:21.500Z,0.80
2018-12-29T05:19:48.729Z,0.80
2018-12-29T05:22:15.967Z,0.80
2018-12-29T05:24:43.271Z,0.90
2018-12-29T05:27:10.533Z,0.80
2018-12-29T05:29:37.771Z,0.90
2018-12-29T05:32:05.042Z,0.80
2018-12-29T05:34:32.388Z,0.80
2018-12-29T05:36:59.634Z,0.70
2018-12-29T05:39:26.876Z,0.70
2018-12-29T05:41:54.106Z,0.70
2018-12-29T05:44:21.367Z,0.70
2018-12-29T05:46:48.627Z,0.80
2018-12-29T05:49:15.855Z,0.70
2018-12-29T05:51:43.100Z,0.70
2018-12-29T05:54:10.352Z,0.60
2018-12-29T05:56:37.576Z,0.80
2018-12-29T05:59:04.810Z,0.60
2018-12-29T06:01:32.067Z,0.70
2018-12-29T06:03:59.291Z,0.50
2018-12-29T06:06:26.518Z,0.40
2018-12-29T06:08:53.766Z,0.40
2018-12-29T06:11:21.019Z,0.60
2018-12-29T06:13:48.260Z,0.60
2018-12-29T06:16:15.488Z,0.70
2018-12-29T06:18:42.756Z,0.60
2018-12-29T06:21:09.991Z,0.60
2018-12-29T06:23:37.239Z,0.80
2018-12-29T06:26:04.495Z,0.60
2018-12-29T06:28:31.763Z,0.80
2018-12-29T06:30:59.028Z,0.90
2018-12-29T06:33:26.254Z,0.70
2018-12-29T06:35:53.554Z,0.80
2018-12-29T06:38:20.881Z,0.70
2018-12-29T06:40:48.107Z,0.70
2018-12-29T06:43:15.371Z,0.70
2018-12-29T06:45:42.603Z,0.70
2018-12-29T06:48:09.863Z,0.70
2018-12-29T06:50:37.107Z,0.70
2018-12-29T06:53:04.363Z,0.60
2018-12-29T06:55:31.715Z,0.70
2018-12-29T06:57:59.059Z,0.70
2018-12-29T07:00:26.351Z,0.70
2018-12-29T07:02:53.627Z,0.60
2018-12-29T07:05:20.840Z,0.70
2018-12-29T07:07:48.079Z,0.70
2018-12-29T07:10:15.345Z,0.60
2018-12-29T07:12:42.577Z,0.70
2018-12-29T07:15:09.834Z,0.70
2018-12-29T07:17:37.127Z,0.70
2018-12-29T07:20:04.372Z,0.60
2018-12-29T07:22:31.624Z,0.70
2018-12-29T07:24:58.952Z,0.70
2018-12-29T07:27:26.227Z,0.70
2018-12-29T07:29:53.451Z,0.70
2018-12-29T07:32:20.696Z,0.70
2018-12-29T07:34:48.003Z,0.70
2018-12-29T07:37:15.247Z,0.70
2018-12-29T07:39:42.459Z,0.60
2018-12-29T07:42:09.695Z,0.70
2018-12-29T07:44:36.922Z,0.70
2018-12-29T07:47:04.159Z,0.70
2018-12-29T07:49:31.399Z,0.80
2018-12-29T07:51:58.628Z,0.90
2018-12-29T07:54:25.976Z,0.70
2018-12-29T07:56:53.291Z,0.80
2018-12-29T07:59:20.627Z,0.80
2018-12-29T08:01:47.970Z,0.90
2018-12-29T08:04:15.207Z,0.90
2018-12-29T08:06:42.422Z,0.90
2018-12-29T08:09:09.659Z,0.80
2018-12-29T08:11:36.871Z,0.80
2018-12-29T08:14:04.087Z,0.90
2018-12-29T08:16:31.360Z,0.90
2018-12-29T08:18:58.572Z,0.90
2018-12-29T08:21:25.806Z,1.00
2018-12-29T08:23:53.080Z,0.90
2018-12-29T08:26:20.315Z,0.80
2018-12-29T08:28:47.548Z,0.90
2018-12-29T08:31:14.815Z,0.90
2018-12-29T08:33:42.048Z,1.00
2018-12-29T08:36:09.293Z,1.00
2018-12-29T08:38:36.633Z,0.90
2018-12-29T08:41:03.882Z,1.10
2018-12-29T08:43:31.219Z,1.00
2018-12-29T08:45:58.464Z,1.00
2018-12-29T08:48:26.823Z,1.00
2018-12-29T08:50:54.092Z,1.00
2018-12-29T08:53:21.315Z,1.00
2018-12-29T08:55:48.527Z,1.00
2018-12-29T08:58:15.769Z,1.20
2018-12-29T09:00:43.112Z,1.20
2018-12-29T09:03:10.355Z,1.30
2018-12-29T09:05:37.623Z,1.20
2018-12-29T09:08:04.926Z,1.20
2018-12-29T09:10:32.215Z,1.20
2018-12-29T09:13:00.543Z,1.20
2018-12-29T09:15:27.786Z,1.20
2018-12-29T09:17:54.999Z,1.30
2018-12-29T09:20:22.230Z,1.40
2018-12-29T09:22:49.567Z,1.40
2018-12-29T09:25:16.807Z,1.40
2018-12-29T09:27:44.032Z,1.20
2018-12-29T09:30:17.214Z,1.50
2018-12-29T09:32:44.519Z,1.50
2018-12-29T09:35:11.743Z,1.50
2018-12-29T09:37:38.995Z,1.50
2018-12-29T09:40:06.235Z,1.50
2018-12-29T09:42:33.474Z,1.60
2018-12-29T09:45:00.716Z,1.50
2018-12-29T09:47:27.931Z,1.80
2018-12-29T09:49:55.186Z,1.60
2018-12-29T09:52:22.514Z,1.60
2018-12-29T09:54:49.845Z,1.60
2018-12-29T09:57:17.083Z,1.50
2018-12-29T09:59:50.387Z,1.70
2018-12-29T10:02:17.701Z,1.70
2018-12-29T10:04:44.941Z,1.70
2018-12-29T10:07:12.199Z,2.00
2018-12-29T10:09:39.755Z,2.10
2018-12-29T10:12:07.068Z,1.90
2018-12-29T10:14:34.288Z,1.90
2018-12-29T10:17:01.519Z,1.90
2018-12-29T10:19:28.755Z,1.90
2018-12-29T10:22:02.119Z,2.00
2018-12-29T10:24:29.627Z,2.00
2018-12-29T10:26:56.916Z,2.10
2018-12-29T10:29:49.700Z,2.10
2018-12-29T10:32:42.409Z,2.20
2018-12-29T10:35:16.940Z,2.10
2018-12-29T10:38:15.290Z,2.20
2018-12-29T10:40:42.610Z,2.30
2018-12-29T10:43:09.872Z,2.40
2018-12-29T10:45:37.310Z,2.50
2018-12-29T10:48:04.726Z,2.50
2018-12-29T10:50:32.135Z,2.60
2018-12-29T10:52:59.383Z,2.50
2018-12-29T10:55:26.703Z,2.60
2018-12-29T10:57:53.964Z,2.50
2018-12-29T11:00:21.197Z,2.60
2018-12-29T11:02:48.852Z,2.50
2018-12-29T11:05:16.514Z,2.70
2018-12-29T11:07:46.689Z,2.60
2018-12-29T11:10:14.391Z,2.60
2018-12-29T11:12:45.004Z,2.50
2018-12-29T11:15:16.604Z,2.60
2018-12-29T11:17:44.311Z,2.70
2018-12-29T11:20:11.986Z,2.50
2018-12-29T11:22:39.323Z,2.50
2018-12-29T11:25:07.260Z,2.60
2018-12-29T11:27:34.685Z,2.70
2018-12-29T11:30:01.964Z,2.80
2018-12-29T11:32:29.263Z,2.70
2018-12-29T11:34:56.519Z,2.80
2018-12-29T11:37:23.889Z,2.80
2018-12-29T11:39:51.349Z,2.90
2018-12-29T11:42:18.641Z,2.90
2018-12-29T11:44:46.045Z,2.80
2018-12-29T11:47:13.383Z,3.00
2018-12-29T11:49:40.633Z,3.10
2018-12-29T11:52:08.022Z,2.90
2018-12-29T11:54:35.668Z,2.80
2018-12-29T11:57:02.915Z,2.90
2018-12-29T11:59:30.489Z,2.90
2018-12-29T12:01:57.853Z,3.10
2018-12-29T12:04:27.715Z,3.00
2018-12-29T12:06:55.152Z,3.20
2018-12-29T12:09:22.536Z,3.20
2018-12-29T12:11:49.907Z,3.20
2018-12-29T12:14:17.315Z,3.20
2018-12-29T12:16:44.656Z,3.20
2018-12-29T12:19:13.060Z,3.10
2018-12-29T12:21:40.509Z,3.20
2018-12-29T12:24:07.940Z,3.30
2018-12-29T12:26:35.278Z,3.40
2018-12-29T12:29:02.697Z,3.40
2018-12-29T12:31:30.758Z,3.40
2018-12-29T12:33:58.502Z,3.40
2018-12-29T12:36:26.561Z,3.40
2018-12-29T12:38:54.236Z,3.40
2018-12-29T12:41:21.961Z,3.40
2018-12-29T12:43:50.142Z,3.50
2018-12-29T12:46:17.706Z,3.40
2018-12-29T12:48:45.443Z,3.50
2018-12-29T12:51:12.949Z,3.50
2018-12-29T12:53:40.389Z,3.30
2018-12-29T12:56:07.732Z,3.30
2018-12-29T12:58:35.299Z,3.20
2018-12-29T13:01:03.049Z,3.20
2018-12-29T13:03:30.801Z,3.20
2018-12-29T13:05:58.242Z,3.30
2018-12-29T13:08:25.908Z,3.10
2018-12-29T13:10:53.388Z,3.00
2018-12-29T13:13:20.823Z,3.10
2018-12-29T13:15:48.265Z,3.00
2018-12-29T13:18:16.753Z,3.00
2018-12-29T13:20:44.073Z,3.10
2018-12-29T13:23:11.459Z,2.90
2018-12-29T13:25:52.010Z,2.90
2018-12-29T13:28:46.061Z,2.90
2018-12-29T13:31:07.504Z,2.90
2018-12-29T13:33:34.897Z,2.90
2018-12-29T13:36:02.268Z,2.80
2018-12-29T13:38:40.249Z,2.90
2018-12-29T13:41:09.951Z,2.90
2018-12-29T13:43:37.999Z,3.00
2018-12-29T13:48:34.605Z,2.90
2018-12-29T13:51:02.209Z,2.90
2018-12-29T13:53:29.752Z,3.00
2018-12-29T13:55:57.303Z,3.00
2018-12-29T13:58:25.232Z,3.00
2018-12-29T14:00:52.692Z,2.90
2018-12-29T14:03:20.972Z,3.00
2018-12-29T14:05:48.468Z,3.00
2018-12-29T14:08:16.301Z,3.10
2018-12-29T14:10:44.199Z,3.10
2018-12-29T14:13:11.785Z,3.00
2018-12-29T14:15:39.382Z,3.00
2018-12-29T14:18:07.041Z,3.00
2018-12-29T14:20:34.595Z,3.10
2018-12-29T14:23:03.249Z,3.00
2018-12-29T14:25:34.347Z,3.10
2018-12-29T14:28:02.374Z,3.00
2018-12-29T14:30:34.404Z,3.00
2018-12-29T14:33:06.291Z,3.10
2018-12-29T14:35:38.195Z,3.00
2018-12-29T14:38:06.023Z,2.90
2018-12-29T14:40:33.497Z,2.90
2018-12-29T14:43:01.224Z,2.80
2018-12-29T14:45:28.771Z,2.80
2018-12-29T14:47:56.352Z,2.90
2018-12-29T14:50:24.321Z,2.90
2018-12-29T14:52:51.967Z,3.00
2018-12-29T14:55:19.483Z,2.80
2018-12-29T14:57:46.996Z,3.10
2018-12-29T15:00:14.453Z,2.90
2018-12-29T15:02:42.665Z,3.00
2018-12-29T15:05:10.127Z,2.90
2018-12-29T15:07:37.590Z,2.90
2018-12-29T15:10:05.459Z,2.90
2018-12-29T15:12:35.064Z,2.90
2018-12-29T15:15:04.257Z,2.90
2018-12-29T15:17:31.840Z,3.00
2018-12-29T15:19:59.760Z,3.10
2018-12-29T15:22:27.278Z,3.00
2018-12-29T15:24:54.836Z,3.10
2018-12-29T15:27:25.554Z,2.90
2018-12-29T15:29:53.325Z,3.00
2018-12-29T15:32:21.058Z,3.00
2018-12-29T15:34:49.235Z,3.00
2018-12-29T15:37:16.817Z,2.90
2018-12-29T15:39:44.327Z,3.10
2018-12-29T15:42:13.297Z,2.90
2018-12-29T15:44:40.968Z,3.10
2018-12-29T15:47:08.531Z,3.00
2018-12-29T15:49:39.912Z,3.00
2018-12-29T15:52:10.955Z,3.00
2018-12-29T15:54:39.325Z,3.10
2018-12-29T15:57:06.866Z,3.00
2018-12-29T15:59:35.050Z,3.10
2018-12-29T16:02:02.743Z,3.00
2018-12-29T16:04:30.559Z,3.10
2018-12-29T16:06:58.370Z,3.20
2018-12-29T16:09:26.175Z,3.10
2018-12-29T16:11:54.096Z,3.10
2018-12-29T16:14:21.714Z,3.10
2018-12-29T16:16:49.667Z,2.90
2018-12-29T16:19:17.206Z,2.90
2018-12-29T16:21:46.237Z,3.00
2018-12-29T16:24:14.260Z,3.00
2018-12-29T16:26:42.017Z,3.00
2018-12-29T16:29:10.060Z,3.00
2018-12-29T16:31:37.617Z,3.00
2018-12-29T16:34:07.020Z,3.00
2018-12-29T16:36:35.424Z,3.00
2018-12-29T16:39:03.933Z,3.00
2018-12-29T16:41:31.973Z,3.00
2018-12-29T16:43:59.928Z,2.90
2018-12-29T16:46:31.664Z,3.00
2018-12-29T16:49:06.552Z,3.00
2018-12-29T16:51:29.022Z,3.00
2018-12-29T16:53:58.501Z,3.00
2018-12-29T16:56:26.129Z,3.00
2018-12-29T16:58:55.594Z,3.00
2018-12-29T17:01:26.209Z,3.00
2018-12-29T17:03:53.802Z,3.10
2018-12-29T17:06:21.396Z,3.00
2018-12-29T17:08:49.041Z,3.00
2018-12-29T17:11:16.696Z,3.00
2018-12-29T17:13:44.741Z,3.10
2018-12-29T17:16:17.135Z,3.00
2018-12-29T17:18:45.078Z,3.00
2018-12-29T17:21:14.769Z,3.10
2018-12-29T17:23:44.500Z,3.10
2018-12-29T17:26:12.543Z,3.20
2018-12-29T17:28:43.802Z,3.20
2018-12-29T17:31:12.870Z,3.00
2018-12-29T17:33:43.612Z,2.90
2018-12-29T17:39:03.287Z,3.10
2018-12-29T17:41:32.172Z,3.00
2018-12-29T17:43:59.770Z,3.10
2018-12-29T17:46:28.965Z,3.10
2018-12-29T17:48:59.260Z,3.20
2018-12-29T17:51:26.987Z,3.10
2018-12-29T17:53:57.358Z,3.00
2018-12-29T17:56:46.464Z,3.00
2018-12-29T17:59:15.603Z,3.00
2018-12-29T18:01:43.519Z,3.20
2018-12-29T18:04:11.179Z,3.20
2018-12-29T18:06:38.777Z,3.10
2018-12-29T18:09:06.350Z,3.10
2018-12-29T18:11:36.175Z,3.10
2018-12-29T18:14:08.710Z,3.10
2018-12-29T18:16:36.375Z,3.10
2018-12-29T18:19:03.989Z,3.00
2018-12-29T18:21:31.491Z,3.10
2018-12-29T18:23:59.095Z,3.10
2018-12-29T18:26:26.817Z,3.10
2018-12-29T18:28:54.561Z,3.10
2018-12-29T18:31:24.355Z,3.10
2018-12-29T18:33:52.283Z,3.00
2018-12-29T18:36:19.722Z,3.00
2018-12-29T18:39:07.338Z,2.90
2018-12-29T18:41:34.829Z,3.10
2018-12-29T18:44:03.843Z,3.10
2018-12-29T18:46:32.389Z,2.80
2018-12-29T18:48:59.815Z,2.80
2018-12-29T18:51:27.297Z,2.90
2018-12-29T18:53:56.835Z,3.10
2018-12-29T18:56:24.836Z,3.00
2018-12-29T18:58:54.620Z,3.00
2018-12-29T19:01:22.848Z,2.90
2018-12-29T19:03:52.848Z,3.00
2018-12-29T19:06:22.196Z,2.90
2018-12-29T19:08:49.723Z,2.90
2018-12-29T19:11:18.951Z,2.90
2018-12-29T19:14:06.136Z,2.90
2018-12-29T19:16:36.430Z,2.90
2018-12-29T19:19:05.866Z,3.10
2018-12-29T19:21:39.330Z,2.90
2018-12-29T19:24:10.613Z,3.10
2018-12-29T19:26:38.791Z,3.10
2018-12-29T19:29:10.700Z,3.10
2018-12-29T19:31:44.532Z,3.20
2018-12-29T19:34:08.408Z,3.10
2018-12-29T19:36:38.761Z,3.10
2018-12-29T19:39:10.178Z,3.10
2018-12-29T19:44:20.654Z,3.20
2018-12-29T19:46:48.846Z,3.20
2018-12-29T19:49:18.218Z,3.30
2018-12-29T19:51:45.718Z,3.20
2018-12-29T19:54:13.743Z,3.40
2018-12-29T19:56:41.379Z,3.40
2018-12-29T19:59:09.334Z,3.30
2018-12-29T20:01:38.098Z,3.40
2018-12-29T20:04:06.100Z,3.40
2018-12-29T20:06:33.765Z,3.50
2018-12-29T20:09:01.727Z,3.50
2018-12-29T20:11:29.170Z,3.50
2018-12-29T20:13:58.459Z,3.50
2018-12-29T20:16:26.353Z,3.50
2018-12-29T20:18:54.284Z,3.60
2018-12-29T20:21:22.179Z,3.60
2018-12-29T20:23:51.244Z,3.50
2018-12-29T20:26:21.175Z,3.50
2018-12-29T20:28:49.774Z,3.60
2018-12-29T20:31:17.371Z,3.60
2018-12-29T20:33:45.773Z,3.50
2018-12-29T20:36:14.495Z,3.70
2018-12-29T20:38:43.608Z,3.60
2018-12-29T20:41:11.695Z,3.70
2018-12-29T20:43:39.323Z,3.70
2018-12-29T20:46:06.923Z,3.70
2018-12-29T20:48:34.536Z,3.70
2018-12-29T20:51:03.206Z,3.70
2018-12-29T20:53:31.100Z,3.80
2018-12-29T20:56:01.045Z,3.70
2018-12-29T20:58:30.104Z,3.90
2018-12-29T21:01:00.605Z,3.80
2018-12-29T21:03:28.186Z,3.90
2018-12-29T21:05:55.699Z,3.80
2018-12-29T21:08:23.209Z,3.90
2018-12-29T21:10:51.179Z,3.90
2018-12-29T21:13:18.769Z,3.80
2018-12-29T21:15:48.823Z,3.90
2018-12-29T21:18:17.527Z,3.90
2018-12-29T21:20:46.841Z,3.90
2018-12-29T21:23:14.261Z,3.90
2018-12-29T21:25:41.956Z,4.20
2018-12-29T21:28:09.902Z,4.20
2018-12-29T21:30:37.338Z,4.20
2018-12-29T21:33:05.245Z,4.20
2018-12-29T21:35:32.750Z,4.20
2018-12-29T21:38:00.206Z,4.20
2018-12-29T21:40:27.812Z,4.20
2018-12-29T21:42:55.225Z,4.30
2018-12-29T21:45:22.711Z,4.30
2018-12-29T21:47:50.257Z,4.40
2018-12-29T21:50:25.121Z,4.30
2018-12-29T21:52:47.336Z,4.40
2018-12-29T21:55:14.812Z,4.40
2018-12-29T21:57:42.217Z,4.50
2018-12-29T22:00:09.808Z,4.40
2018-12-29T22:02:37.290Z,4.40
2018-12-29T22:05:04.755Z,4.50
2018-12-29T22:07:32.104Z,4.60
2018-12-29T22:09:59.473Z,4.50
2018-12-29T22:12:26.820Z,4.40
2018-12-29T22:14:54.160Z,4.50
2018-12-29T22:17:21.500Z,4.40
2018-12-29T22:19:48.877Z,4.50
2018-12-29T22:22:16.400Z,4.40
2018-12-29T22:24:44.035Z,4.50
2018-12-29T22:27:11.473Z,4.50
2018-12-29T22:29:38.825Z,4.50
2018-12-29T22:32:06.167Z,4.60
2018-12-29T22:34:33.529Z,4.60
2018-12-29T22:37:00.879Z,4.50
2018-12-29T22:39:29.624Z,4.60
2018-12-29T22:41:56.969Z,4.70
2018-12-29T22:44:24.347Z,4.70
2018-12-29T22:46:51.720Z,4.70
2018-12-29T22:49:19.059Z,4.60
2018-12-29T22:51:46.410Z,4.60
2018-12-29T22:54:13.868Z,4.60
2018-12-29T22:56:41.211Z,4.50
2018-12-29T22:59:08.559Z,4.70
2018-12-29T23:01:35.901Z,4.80
2018-12-29T23:04:03.260Z,4.60
2018-12-29T23:06:30.615Z,4.70
2018-12-29T23:08:58.353Z,4.70
2018-12-29T23:11:25.719Z,4.60
2018-12-29T23:13:53.051Z,4.70
2018-12-29T23:16:20.428Z,4.80
2018-12-29T23:18:47.971Z,4.70
2018-12-29T23:21:15.387Z,4.80
2018-12-29T23:23:42.740Z,4.80
2018-12-29T23:26:10.095Z,4.90
2018-12-29T23:28:37.451Z,4.90
2018-12-29T23:31:05.103Z,4.80
2018-12-29T23:33:32.555Z,4.90
2018-12-29T23:35:59.912Z,4.80
2018-12-29T23:38:27.268Z,4.80
2018-12-29T23:40:54.589Z,4.90
2018-12-29T23:43:21.917Z,4.80
2018-12-29T23:45:49.209Z,4.60
2018-12-29T23:48:16.551Z,4.80
2018-12-29T23:50:43.911Z,4.70
2018-12-29T23:53:11.299Z,4.70
2018-12-29T23:55:38.739Z,4.80
2018-12-29T23:58:06.135Z,4.80
